Time;durP1;ratioP1;P1;durP2;ratioP2;P2;SDS_P1;SDS_P2;PMS_P1;PMS_P2;Temp;Humidity;BMP_temperature;BMP_pressure;BME280_temperature;BME280_humidity;BME280_pressure;Samples;Min_cycle;Max_cycle;Signal;HPM_P1;HPM_P2
2021/03/21 00:02:13;;;;;;;5.00;2.60;;;5.60;99.90;;;;;;5140020;27;20179;-62
2021/03/21 00:04:38;;;;;;;2.35;1.85;;;5.50;99.90;;;;;;5139086;27;20175;-63
2021/03/21 00:07:04;;;;;;;3.03;1.87;;;5.60;99.90;;;;;;5139746;27;20294;-63
2021/03/21 00:09:30;;;;;;;5.60;2.67;;;5.60;99.90;;;;;;5139919;27;20181;-63
2021/03/21 00:11:55;;;;;;;5.73;2.03;;;5.60;99.90;;;;;;5139366;27;20172;-63
2021/03/21 00:14:21;;;;;;;3.77;2.70;;;5.60;99.90;;;;;;5139512;27;20204;-65
2021/03/21 00:16:47;;;;;;;3.87;2.30;;;5.70;99.90;;;;;;5139056;27;20553;-65
2021/03/21 00:19:12;;;;;;;3.70;2.50;;;5.60;99.90;;;;;;5138621;27;20203;-65
2021/03/21 00:21:38;;;;;;;6.03;2.97;;;5.70;99.90;;;;;;5139539;27;20210;-64
2021/03/21 00:24:05;;;;;;;2.10;1.90;;;5.70;99.90;;;;;;5139400;27;20542;-68
2021/03/21 00:26:30;;;;;;;3.25;1.73;;;5.60;99.90;;;;;;5139169;27;20272;-64
2021/03/21 00:28:57;;;;;;;4.30;2.50;;;5.60;99.90;;;;;;5139310;27;20187;-65
2021/03/21 00:31:22;;;;;;;4.80;2.35;;;5.70;99.90;;;;;;5139463;27;20258;-65
2021/03/21 00:33:48;;;;;;;3.20;2.30;;;5.70;99.90;;;;;;5137862;27;20282;-63
2021/03/21 00:36:15;;;;;;;6.60;2.77;;;5.80;99.90;;;;;;5139655;27;20420;-62
2021/03/21 00:38:51;;;;;;;4.25;1.98;;;5.80;99.90;;;;;;5139707;27;20266;-64
2021/03/21 00:41:19;;;;;;;3.50;2.55;;;5.80;99.90;;;;;;5139252;27;20178;-64
2021/03/21 00:43:45;;;;;;;4.00;2.15;;;5.70;99.90;;;;;;5139396;27;20197;-63
2021/03/21 00:46:12;;;;;;;5.50;2.67;;;5.80;99.90;;;;;;5139265;27;20177;-64
2021/03/21 00:48:41;;;;;;;4.47;2.40;;;5.80;99.90;;;;;;5137870;27;20183;-62
2021/03/21 00:51:07;;;;;;;2.60;1.77;;;5.80;99.90;;;;;;5138985;27;20512;-64
2021/03/21 00:53:33;;;;;;;2.97;2.20;;;5.90;99.90;;;;;;5138409;27;20560;-62
2021/03/21 00:55:59;;;;;;;5.17;2.37;;;5.90;99.90;;;;;;5139094;27;20179;-63
2021/03/21 00:58:25;;;;;;;3.27;2.23;;;5.90;99.90;;;;;;5137966;27;20424;-65
2021/03/21 01:00:59;;;;;;;5.07;2.20;;;5.80;99.90;;;;;;5139368;27;20550;-62
2021/03/21 01:03:25;;;;;;;2.60;2.30;;;5.90;99.90;;;;;;5138978;27;20673;-65
2021/03/21 01:06:11;;;;;;;3.63;2.90;;;6.00;99.90;;;;;;5138799;27;20239;-65
2021/03/21 01:08:38;;;;;;;5.05;2.72;;;6.00;99.90;;;;;;5137711;27;20298;-65
2021/03/21 01:11:26;;;;;;;4.07;2.70;;;6.10;99.90;;;;;;5138857;27;20270;-62
2021/03/21 01:13:51;;;;;;;3.38;2.00;;;6.10;99.90;;;;;;5138239;27;20182;-61
2021/03/21 01:16:29;;;;;;;3.60;2.57;;;6.00;99.90;;;;;;5138585;27;20629;-61
2021/03/21 01:18:57;;;;;;;5.35;2.40;;;5.90;99.90;;;;;;5138494;27;20218;-61
2021/03/21 01:21:24;;;;;;;4.65;2.50;;;6.00;99.90;;;;;;5139153;27;20193;-65
2021/03/21 01:23:49;;;;;;;3.40;2.70;;;5.90;99.90;;;;;;5138146;27;20222;-63
2021/03/21 01:26:17;;;;;;;4.90;3.20;;;6.00;99.90;;;;;;5138310;27;20171;-64
2021/03/21 01:28:43;;;;;;;26.58;11.85;;;6.00;99.90;;;;;;5138158;27;20221;-64
2021/03/21 01:31:11;;;;;;;5.13;3.17;;;6.00;99.90;;;;;;5138685;27;20587;-64
2021/03/21 01:33:37;;;;;;;3.50;2.40;;;6.00;99.90;;;;;;5138157;27;20176;-62
2021/03/21 01:36:05;;;;;;;6.07;2.90;;;6.00;99.90;;;;;;5138345;27;20174;-63
2021/03/21 01:38:31;;;;;;;7.05;3.22;;;6.00;99.90;;;;;;5137913;27;20697;-63
2021/03/21 01:41:01;;;;;;;3.10;2.43;;;6.00;99.90;;;;;;5137485;27;20272;-64
2021/03/21 01:43:36;;;;;;;7.32;3.40;;;6.10;99.90;;;;;;5136692;27;20497;-63
2021/03/21 01:46:03;;;;;;;11.40;3.88;;;6.10;99.90;;;;;;5136682;27;20247;-64
2021/03/21 01:48:47;;;;;;;5.07;3.42;;;6.10;99.90;;;;;;5136777;27;20550;-64
2021/03/21 01:51:31;;;;;;;5.95;4.18;;;6.10;99.90;;;;;;5137685;27;20172;-64
2021/03/21 01:54:01;;;;;;;10.23;4.68;;;6.20;99.90;;;;;;5137894;27;20183;-62
2021/03/21 01:56:29;;;;;;;9.63;4.30;;;6.10;99.90;;;;;;5137927;27;20181;-63
2021/03/21 01:59:08;;;;;;;8.52;5.13;;;6.10;99.90;;;;;;5137544;27;20533;-62
2021/03/21 02:01:34;;;;;;;8.95;5.38;;;6.20;99.90;;;;;;5138037;27;20170;-64
2021/03/21 02:04:00;;;;;;;7.05;3.97;;;6.20;99.90;;;;;;5137406;27;20227;-63
2021/03/21 02:06:35;;;;;;;7.55;4.88;;;6.20;99.90;;;;;;5137234;27;20178;-62
2021/03/21 02:09:22;;;;;;;6.68;4.30;;;6.20;99.90;;;;;;5136989;27;20186;-64
2021/03/21 02:12:02;;;;;;;5.55;4.13;;;6.10;99.90;;;;;;5136548;27;20257;-64
2021/03/21 02:15:05;;;;;;;8.23;4.55;;;6.10;99.90;;;;;;5136287;27;20265;-63
2021/03/21 02:17:41;;;;;;;4.35;3.47;;;6.10;99.90;;;;;;5136485;27;20178;-63
2021/03/21 02:20:32;;;;;;;7.03;4.00;;;6.10;99.90;;;;;;5136360;27;20203;-63
2021/03/21 02:23:09;;;;;;;4.82;3.58;;;6.10;99.90;;;;;;5135877;27;20367;-64
2021/03/21 02:25:44;;;;;;;6.80;4.35;;;6.10;99.90;;;;;;5136486;27;20194;-62
2021/03/21 02:28:32;;;;;;;6.10;3.47;;;6.10;99.90;;;;;;5136025;27;20164;-63
2021/03/21 02:31:24;;;;;;;5.13;2.92;;;6.10;99.90;;;;;;5136142;27;20619;-63
2021/03/21 02:34:14;;;;;;;5.28;3.28;;;6.10;99.90;;;;;;5136099;27;20176;-63
2021/03/21 02:37:03;;;;;;;5.10;3.78;;;6.00;99.90;;;;;;5136440;27;20182;-63
2021/03/21 02:39:38;;;;;;;8.55;4.30;;;6.10;99.90;;;;;;5137231;27;20243;-62
2021/03/21 02:42:10;;;;;;;4.43;3.28;;;6.10;99.90;;;;;;5137594;27;20183;-62
2021/03/21 02:44:41;;;;;;;4.28;2.95;;;6.10;99.90;;;;;;5136963;27;20168;-63
2021/03/21 02:47:31;;;;;;;4.82;2.88;;;6.20;99.90;;;;;;5136909;27;20178;-63
2021/03/21 02:50:02;;;;;;;4.30;2.58;;;6.10;99.90;;;;;;5136806;27;20163;-65
2021/03/21 02:52:39;;;;;;;4.70;2.45;;;6.10;99.90;;;;;;5136413;28;20178;-64
2021/03/21 02:55:27;;;;;;;4.18;3.38;;;6.20;99.90;;;;;;5136112;28;20187;-63
2021/03/21 02:58:08;;;;;;;3.55;2.10;;;6.10;99.90;;;;;;5137089;27;20324;-63
2021/03/21 03:00:38;;;;;;;6.05;2.50;;;6.10;99.90;;;;;;5136159;28;20232;-65
2021/03/21 03:03:08;;;;;;;3.60;2.50;;;6.20;99.90;;;;;;5136969;27;20266;-62
2021/03/21 03:05:42;;;;;;;4.07;2.60;;;6.30;99.90;;;;;;5136650;27;20202;-65
2021/03/21 03:08:14;;;;;;;2.70;1.80;;;6.20;99.90;;;;;;5136410;27;20224;-63
2021/03/21 03:10:45;;;;;;;6.53;2.20;;;6.20;99.90;;;;;;5137575;27;20642;-65
2021/03/21 03:13:22;;;;;;;4.53;2.65;;;6.20;99.90;;;;;;5140406;27;20183;-64
2021/03/21 03:16:00;;;;;;;2.47;1.85;;;6.20;99.90;;;;;;5140955;27;20235;-64
2021/03/21 03:18:47;;;;;;;3.00;1.88;;;6.20;99.90;;;;;;5139940;27;20197;-63
2021/03/21 03:21:28;;;;;;;6.63;2.10;;;6.10;99.90;;;;;;5140976;27;20186;-64
2021/03/21 03:24:07;;;;;;;3.00;2.08;;;6.20;99.90;;;;;;5140843;27;20257;-65
2021/03/21 03:26:55;;;;;;;4.75;1.75;;;6.20;99.90;;;;;;5140567;27;20178;-65
2021/03/21 03:29:36;;;;;;;3.20;2.83;;;6.10;99.90;;;;;;5140786;27;20561;-63
2021/03/21 03:32:05;;;;;;;2.22;1.67;;;6.10;99.90;;;;;;5140767;27;20766;-64
2021/03/21 03:34:32;;;;;;;3.20;2.25;;;6.00;99.90;;;;;;5140249;27;20179;-66
2021/03/21 03:36:59;;;;;;;4.40;2.45;;;6.00;99.90;;;;;;5140267;27;20687;-63
2021/03/21 03:39:24;;;;;;;4.75;2.85;;;6.10;99.90;;;;;;5140345;27;20203;-64
2021/03/21 03:42:30;;;;;;;4.73;2.20;;;6.10;99.90;;;;;;5139427;27;20259;-64
2021/03/21 03:45:24;;;;;;;6.07;2.67;;;6.10;99.90;;;;;;5140450;27;20178;-63
2021/03/21 03:48:12;;;;;;;3.80;1.30;;;6.00;99.90;;;;;;5140395;27;20178;-64
2021/03/21 03:50:53;;;;;;;6.07;3.00;;;5.90;99.90;;;;;;5140333;27;20285;-64
2021/03/21 03:53:42;;;;;;;5.43;2.40;;;6.00;99.90;;;;;;5140429;27;20194;-62
2021/03/21 03:56:17;;;;;;;6.82;2.53;;;6.00;99.90;;;;;;5140282;27;20190;-64
2021/03/21 03:59:08;;;;;;;11.23;2.33;;;5.90;99.90;;;;;;5140240;27;20201;-64
2021/03/21 04:01:59;;;;;;;2.33;1.83;;;5.90;99.90;;;;;;5140123;27;20640;-64
2021/03/21 04:04:37;;;;;;;3.58;2.08;;;5.90;99.90;;;;;;5139950;27;20193;-64
2021/03/21 04:07:28;;;;;;;4.15;2.03;;;5.90;99.90;;;;;;5140036;27;20580;-64
2021/03/21 04:10:01;;;;;;;4.47;2.28;;;5.90;99.90;;;;;;5140595;27;20185;-64
2021/03/21 04:12:39;;;;;;;4.30;1.95;;;5.90;99.90;;;;;;5140042;27;20258;-62
2021/03/21 04:15:08;;;;;;;1.58;1.13;;;5.80;99.90;;;;;;5140735;27;20172;-62
2021/03/21 04:17:56;;;;;;;2.60;1.67;;;5.80;99.90;;;;;;5140080;27;20178;-63
2021/03/21 04:20:26;;;;;;;3.60;1.80;;;5.80;99.90;;;;;;5138840;27;20203;-63
2021/03/21 04:23:00;;;;;;;3.88;1.40;;;5.90;99.90;;;;;;5139440;27;20167;-63
2021/03/21 04:25:30;;;;;;;5.10;2.10;;;5.80;99.90;;;;;;5139706;27;20181;-63
2021/03/21 04:28:10;;;;;;;5.13;2.38;;;5.80;99.90;;;;;;5139787;27;20500;-63
2021/03/21 04:30:43;;;;;;;7.57;2.17;;;5.80;99.90;;;;;;5139631;27;20182;-64
2021/03/21 04:33:16;;;;;;;4.63;2.10;;;5.80;99.90;;;;;;5139310;27;20174;-63
2021/03/21 04:35:52;;;;;;;9.02;2.50;;;5.80;99.90;;;;;;5138816;27;20187;-64
2021/03/21 04:38:27;;;;;;;9.18;2.13;;;5.80;99.90;;;;;;5139562;27;20189;-63
2021/03/21 04:40:53;;;;;;;5.25;1.42;;;5.80;99.90;;;;;;5139649;27;20229;-64
2021/03/21 04:43:30;;;;;;;6.65;1.23;;;5.80;99.90;;;;;;5139182;27;20516;-64
2021/03/21 04:45:59;;;;;;;8.70;2.22;;;5.80;99.90;;;;;;5139279;27;20259;-64
2021/03/21 04:48:26;;;;;;;10.93;2.22;;;5.80;99.90;;;;;;5139582;27;20243;-64
2021/03/21 04:51:06;;;;;;;1.98;1.30;;;5.80;99.90;;;;;;5139379;27;20173;-63
2021/03/21 04:53:46;;;;;;;11.85;1.98;;;5.70;99.90;;;;;;5139467;27;20176;-64
2021/03/21 04:56:30;;;;;;;11.30;2.55;;;5.70;99.90;;;;;;5139198;27;20251;-63
2021/03/21 04:59:02;;;;;;;6.60;1.63;;;5.70;99.90;;;;;;5139257;27;20191;-63
2021/03/21 05:01:52;;;;;;;15.60;2.67;;;5.70;99.90;;;;;;5138798;27;20555;-63
2021/03/21 05:04:24;;;;;;;6.85;1.77;;;5.70;99.90;;;;;;5138596;27;20220;-65
2021/03/21 05:06:56;;;;;;;16.42;3.55;;;5.60;99.90;;;;;;5139263;27;20185;-65
2021/03/21 05:09:45;;;;;;;6.63;3.17;;;5.50;28.30;;;;;;5139814;27;20186;-65
2021/03/21 05:12:37;;;;;;;10.90;2.92;;;5.50;1.00;;;;;;5139306;27;20266;-65
2021/03/21 05:15:40;;;;;;;5.50;1.85;;;5.40;1.00;;;;;;5127465;27;20495;-65
2021/03/21 05:18:35;;;;;;;8.45;2.00;;;5.30;1.00;;;;;;5104768;27;20208;-65
2021/03/21 05:21:06;;;;;;;6.53;3.17;;;5.40;1.00;;;;;;5139557;27;20255;-65
2021/03/21 05:24:05;;;;;;;11.98;2.60;;;5.30;1.00;;;;;;5139110;27;20178;-65
2021/03/21 05:26:30;;;;;;;10.82;2.75;;;5.30;1.00;;;;;;5138982;27;20550;-63
2021/03/21 05:29:25;;;;;;;11.10;2.33;;;5.30;1.00;;;;;;5139423;27;20193;-63
2021/03/21 05:31:52;;;;;;;16.70;2.67;;;5.20;99.90;;;;;;5139001;27;20269;-63
2021/03/21 05:34:21;;;;;;;11.07;2.50;;;5.30;99.90;;;;;;5137517;27;20214;-62
2021/03/21 05:36:53;;;;;;;15.93;3.78;;;5.20;99.90;;;;;;5137892;27;20191;-63
2021/03/21 05:39:34;;;;;;;9.85;3.65;;;5.20;99.90;;;;;;5138993;27;20267;-64
2021/03/21 05:42:37;;;;;;;9.25;3.35;;;5.20;99.90;;;;;;5139054;27;20619;-62
2021/03/21 05:45:30;;;;;;;19.95;3.22;;;5.20;99.90;;;;;;5138374;27;20178;-62
2021/03/21 05:48:20;;;;;;;12.30;2.72;;;5.30;99.90;;;;;;5138726;27;20170;-61
2021/03/21 05:51:19;;;;;;;11.35;2.25;;;5.30;99.90;;;;;;5138298;27;20277;-63
2021/03/21 05:54:16;;;;;;;12.55;3.08;;;5.20;99.90;;;;;;5138290;27;20171;-64
2021/03/21 05:57:19;;;;;;;13.77;4.28;;;5.20;99.90;;;;;;5138239;27;20613;-64
2021/03/21 05:59:59;;;;;;;13.43;4.00;;;5.20;99.90;;;;;;5138036;27;20227;-65
2021/03/21 06:02:54;;;;;;;15.80;4.78;;;5.10;99.90;;;;;;5137791;27;20179;-65
2021/03/21 06:05:59;;;;;;;18.48;4.80;;;5.10;99.90;;;;;;5137305;27;20176;-63
2021/03/21 06:08:30;;;;;;;14.80;3.85;;;5.10;99.90;;;;;;5126926;27;20214;-63
2021/03/21 06:11:08;;;;;;;16.48;4.25;;;5.10;99.90;;;;;;5137966;27;20631;-63
2021/03/21 06:13:48;;;;;;;16.23;3.25;;;5.10;94.40;;;;;;5137762;27;20178;-65
2021/03/21 06:16:50;;;;;;;13.18;3.45;;;5.10;99.90;;;;;;5137496;27;20182;-62
2021/03/21 06:19:56;;;;;;;9.77;2.65;;;5.20;1.00;;;;;;5137429;27;20205;-62
2021/03/21 06:22:28;;;;;;;15.63;4.10;;;5.20;1.00;;;;;;5107032;27;20622;-63
2021/03/21 06:25:31;;;;;;;7.75;3.15;;;5.20;1.00;;;;;;5137791;27;20183;-63
2021/03/21 06:28:31;;;;;;;26.30;5.82;;;5.10;1.00;;;;;;5137316;27;20546;-64
2021/03/21 06:31:27;;;;;;;11.80;3.58;;;5.20;1.00;;;;;;5137960;27;20239;-64
2021/03/21 06:34:29;;;;;;;22.63;5.57;;;5.20;1.00;;;;;;5137761;27;20178;-62
2021/03/21 06:37:18;;;;;;;28.13;3.92;;;5.30;1.00;;;;;;5136733;27;20195;-62
2021/03/21 06:40:17;;;;;;;21.27;4.72;;;5.40;1.00;;;;;;5136931;27;20529;-63
2021/03/21 06:43:03;;;;;;;19.95;4.50;;;5.40;1.00;;;;;;5137183;27;20284;-64
2021/03/21 06:45:54;;;;;;;12.82;3.38;;;5.50;1.00;;;;;;5136880;27;20189;-63
2021/03/21 06:48:59;;;;;;;35.65;4.80;;;5.40;1.00;;;;;;5136313;27;20264;-62
2021/03/21 06:52:02;;;;;;;15.10;2.97;;;5.40;1.00;;;;;;5136841;27;20290;-64
2021/03/21 06:55:07;;;;;;;11.90;3.47;;;5.50;5.90;;;;;;5136558;28;20189;-63
2021/03/21 06:57:48;;;;;;;15.95;3.92;;;5.60;1.00;;;;;;5137276;27;20179;-63
2021/03/21 07:00:16;;;;;;;17.58;4.28;;;5.50;1.00;;;;;;5136795;28;20235;-64
2021/03/21 07:03:20;;;;;;;13.50;4.28;;;5.60;1.00;;;;;;5135600;28;20253;-64
2021/03/21 07:06:07;;;;;;;12.63;3.55;;;5.70;1.00;;;;;;5135635;28;20180;-64
2021/03/21 07:08:55;;;;;;;12.43;3.88;;;5.60;1.00;;;;;;5137460;28;20242;-64
2021/03/21 07:11:58;;;;;;;16.63;3.63;;;5.70;1.00;;;;;;5137612;28;20631;-62
2021/03/21 07:14:49;;;;;;;10.27;2.58;;;5.90;99.90;;;;;;5128522;28;20186;-62
2021/03/21 07:17:32;;;;;;;9.35;3.08;;;5.90;99.90;;;;;;5126684;28;20597;-61
2021/03/21 07:20:36;;;;;;;25.23;4.53;;;6.20;99.90;;;;;;5127151;27;20215;-62
2021/03/21 07:23:21;;;;;;;15.15;3.80;;;6.20;1.00;;;;;;5134323;28;20192;-64
2021/03/21 07:26:21;;;;;;;11.52;4.35;;;6.20;1.00;;;;;;5133143;27;20180;-63
2021/03/21 07:29:24;;;;;;;10.48;3.00;;;6.20;1.00;;;;;;5132846;28;20180;-62
2021/03/21 07:31:55;;;;;;;15.35;3.50;;;6.20;1.00;;;;;;5125069;28;20200;-62
2021/03/21 07:34:30;;;;;;;19.17;5.38;;;6.00;1.00;;;;;;5127034;28;20674;-63
2021/03/21 07:37:07;;;;;;;18.13;4.47;;;6.10;99.90;;;;;;5135079;28;20224;-65
2021/03/21 07:39:49;;;;;;;17.15;4.80;;;6.30;1.00;;;;;;5134956;27;20206;-63
2021/03/21 07:43:11;;;;;;;20.80;4.00;;;6.20;1.00;;;;;;5136520;27;20168;-62
2021/03/21 07:46:06;;;;;;;9.10;2.67;;;6.10;77.80;;;;;;5053577;28;20190;-62
2021/03/21 07:48:44;;;;;;;20.98;4.20;;;6.20;1.00;;;;;;5053544;28;20186;-62
2021/03/21 07:51:45;;;;;;;18.80;3.90;;;6.30;1.00;;;;;;5123841;27;20184;-65
2021/03/21 07:54:36;;;;;;;16.60;4.25;;;6.40;34.50;;;;;;5118276;27;20187;-62
2021/03/21 07:57:26;;;;;;;12.20;3.70;;;6.30;99.90;;;;;;5133250;27;20180;-65
2021/03/21 07:59:54;;;;;;;15.35;5.30;;;6.40;99.90;;;;;;5139545;27;20201;-65
2021/03/21 08:02:37;;;;;;;13.63;3.95;;;6.30;63.70;;;;;;5139958;27;20175;-65
2021/03/21 08:05:25;;;;;;;17.80;3.58;;;6.30;1.00;;;;;;5139017;27;20227;-65
2021/03/21 08:07:53;;;;;;;18.95;4.38;;;6.30;1.00;;;;;;5139617;27;20570;-63
2021/03/21 08:10:24;;;;;;;18.55;4.43;;;6.30;1.00;;;;;;5139734;27;20197;-63
2021/03/21 08:12:59;;;;;;;17.65;3.58;;;6.40;99.90;;;;;;5139771;27;20196;-64
2021/03/21 08:15:30;;;;;;;19.83;3.53;;;6.40;99.90;;;;;;5139509;27;20195;-64
2021/03/21 08:18:00;;;;;;;29.38;5.57;;;6.60;1.00;;;;;;5138089;27;20199;-65
2021/03/21 08:20:38;;;;;;;22.80;6.00;;;6.70;1.00;;;;;;5138092;27;20236;-64
2021/03/21 08:23:26;;;;;;;28.23;6.35;;;6.90;99.90;;;;;;5139361;27;20187;-64
2021/03/21 08:25:54;;;;;;;15.38;3.78;;;6.90;99.90;;;;;;5138177;27;20168;-65
2021/03/21 08:28:23;;;;;;;22.83;5.00;;;7.20;1.00;;;;;;5139131;27;20200;-63
2021/03/21 08:30:51;;;;;;;11.98;3.50;;;7.00;99.90;;;;;;5139568;27;20263;-63
2021/03/21 08:33:43;;;;;;;6.93;3.05;;;6.80;1.00;;;;;;5138748;27;20657;-67
2021/03/21 08:36:21;;;;;;;35.97;4.43;;;6.80;1.00;;;;;;5135344;27;20207;-63
2021/03/21 08:39:13;;;;;;;18.88;5.35;;;6.80;99.90;;;;;;5139788;27;20208;-65
2021/03/21 08:42:18;;;;;;;12.90;3.67;;;6.70;1.00;;;;;;5139184;27;20731;-63
2021/03/21 08:44:48;;;;;;;15.70;4.30;;;6.90;1.00;;;;;;5138805;27;20186;-63
2021/03/21 08:47:20;;;;;;;25.92;4.90;;;6.80;1.00;;;;;;5138780;27;20184;-65
2021/03/21 08:49:50;;;;;;;19.88;5.25;;;7.20;99.90;;;;;;5138720;27;20192;-64
2021/03/21 08:52:42;;;;;;;16.58;4.60;;;7.10;99.90;;;;;;5139278;27;20270;-65
2021/03/21 08:55:23;;;;;;;18.05;4.38;;;7.00;1.00;;;;;;5138652;27;20181;-64
2021/03/21 08:57:49;;;;;;;10.98;3.40;;;6.80;4.80;;;;;;5138760;27;20382;-65
2021/03/21 09:00:23;;;;;;;13.50;4.23;;;6.80;1.00;;;;;;5138517;27;20260;-64
2021/03/21 09:02:49;;;;;;;21.55;5.57;;;7.10;99.90;;;;;;5137561;27;20186;-63
2021/03/21 09:05:19;;;;;;;14.18;4.13;;;7.30;1.00;;;;;;5138093;27;20239;-66
2021/03/21 09:08:06;;;;;;;14.05;4.68;;;7.60;1.00;;;;;;5135920;27;20208;-65
2021/03/21 09:10:37;;;;;;;14.13;3.50;;;7.80;1.00;;;;;;5138629;27;20515;-65
2021/03/21 09:13:19;;;;;;;13.32;3.50;;;7.70;1.00;;;;;;5139007;27;20267;-66
2021/03/21 09:15:54;;;;;;;22.48;4.50;;;7.30;1.00;;;;;;5130643;27;20246;-65
2021/03/21 09:18:43;;;;;;;18.48;5.85;;;7.40;68.60;;;;;;5134788;27;20195;-67
2021/03/21 09:21:20;;;;;;;23.75;5.45;;;7.30;99.90;;;;;;5117370;27;20221;-64
2021/03/21 09:24:02;;;;;;;16.52;4.05;;;7.60;84.40;;;;;;5133875;27;20185;-64
2021/03/21 09:26:33;;;;;;;17.10;4.50;;;7.60;1.00;;;;;;5115840;28;20180;-65
2021/03/21 09:29:19;;;;;;;15.82;3.97;;;7.70;1.00;;;;;;5117411;28;20174;-64
2021/03/21 09:31:47;;;;;;;18.70;3.67;;;7.80;1.00;;;;;;5134403;27;20184;-65
2021/03/21 09:34:30;;;;;;;9.32;3.28;;;8.00;99.90;;;;;;5136560;27;20207;-66
2021/03/21 09:37:01;;;;;;;11.00;2.35;;;7.80;99.90;;;;;;5137099;27;20520;-66
2021/03/21 09:39:31;;;;;;;8.90;3.67;;;7.80;99.90;;;;;;5137257;27;20216;-67
2021/03/21 09:41:58;;;;;;;15.98;3.55;;;7.70;99.90;;;;;;5137369;27;20178;-63
2021/03/21 09:44:34;;;;;;;7.57;2.15;;;8.20;99.90;;;;;;5137015;27;20638;-64
2021/03/21 09:47:24;;;;;;;16.17;4.10;;;7.90;53.70;;;;;;5137735;27;20237;-66
2021/03/21 09:50:14;;;;;;;14.55;3.10;;;7.90;99.90;;;;;;5136869;27;20281;-63
2021/03/21 09:52:55;;;;;;;16.92;4.85;;;8.10;2.80;;;;;;5137198;27;20640;-63
2021/03/21 09:55:50;;;;;;;20.40;3.78;;;8.10;99.90;;;;;;5135780;27;20699;-64
2021/03/21 09:58:34;;;;;;;9.57;3.10;;;8.60;1.00;;;;;;5137003;27;20173;-63
2021/03/21 10:01:11;;;;;;;8.77;2.65;;;8.40;1.00;;;;;;5137171;27;20216;-63
2021/03/21 10:03:38;;;;;;;12.93;3.97;;;8.00;1.00;;;;;;5136775;27;20181;-62
2021/03/21 10:06:15;;;;;;;10.32;3.20;;;7.90;99.90;;;;;;5136597;27;20176;-61
2021/03/21 10:08:48;;;;;;;6.75;2.35;;;8.00;1.00;;;;;;5125704;27;20268;-65
2021/03/21 10:11:30;;;;;;;7.43;2.45;;;7.80;88.90;;;;;;5115736;27;20660;-66
2021/03/21 10:13:59;;;;;;;20.38;2.55;;;7.80;14.00;;;;;;5115147;28;20233;-65
2021/03/21 10:16:24;;;;;;;13.50;3.05;;;7.80;99.90;;;;;;5115475;28;20650;-64
2021/03/21 10:18:56;;;;;;;13.00;2.83;;;8.10;13.80;;;;;;5115849;28;20186;-61
2021/03/21 10:21:24;;;;;;;14.32;3.63;;;8.40;1.00;;;;;;5115199;28;20709;-64
2021/03/21 10:24:11;;;;;;;6.65;1.77;;;8.40;1.00;;;;;;5117046;27;20195;-64
2021/03/21 10:26:57;;;;;;;11.30;3.00;;;8.30;1.00;;;;;;5115355;28;20611;-64
2021/03/21 10:29:22;;;;;;;11.50;3.38;;;8.50;1.00;;;;;;5114466;28;20186;-67
2021/03/21 10:31:48;;;;;;;9.33;2.40;;;8.80;1.00;;;;;;5135092;27;20182;-67
2021/03/21 10:34:13;;;;;;;9.83;3.63;;;8.70;1.00;;;;;;5134850;27;20268;-68
2021/03/21 10:36:40;;;;;;;7.13;1.63;;;9.00;1.00;;;;;;5135295;27;20182;-69
2021/03/21 10:39:25;;;;;;;13.20;2.83;;;8.30;1.00;;;;;;5136261;27;20188;-64
2021/03/21 10:42:05;;;;;;;14.25;3.50;;;8.30;1.00;;;;;;5127329;27;20182;-63
2021/03/21 10:44:33;;;;;;;8.85;2.83;;;8.30;1.00;;;;;;5128380;27;20276;-68
2021/03/21 10:47:03;;;;;;;14.02;3.55;;;8.40;1.00;;;;;;5128650;27;20220;-68
2021/03/21 10:49:52;;;;;;;9.23;3.25;;;8.30;1.00;;;;;;5125247;27;20186;-64
2021/03/21 10:52:40;;;;;;;6.88;2.33;;;8.60;1.00;;;;;;5127070;27;20195;-66
2021/03/21 10:55:12;;;;;;;9.95;3.08;;;8.40;1.00;;;;;;5123626;28;20199;-65
2021/03/21 10:57:52;;;;;;;12.88;3.22;;;8.80;1.00;;;;;;5117929;27;20245;-66
2021/03/21 11:00:30;;;;;;;10.32;2.70;;;9.30;1.00;;;;;;5112955;28;20210;-63
2021/03/21 11:02:59;;;;;;;11.13;3.35;;;9.20;1.00;;;;;;5114104;28;20163;-62
2021/03/21 11:05:40;;;;;;;10.68;3.03;;;9.10;1.00;;;;;;5114678;28;20186;-63
2021/03/21 11:08:25;;;;;;;10.85;1.83;;;8.90;1.00;;;;;;5115107;28;20530;-66
2021/03/21 11:11:16;;;;;;;9.82;2.55;;;8.50;1.00;;;;;;5113800;28;20190;-68
2021/03/21 11:13:43;;;;;;;13.88;2.97;;;8.60;1.00;;;;;;5112655;28;20213;-66
2021/03/21 11:16:14;;;;;;;9.23;3.05;;;8.90;1.00;;;;;;5114573;28;20278;-66
2021/03/21 11:18:42;;;;;;;14.30;3.78;;;8.60;1.00;;;;;;5114075;28;20526;-66
2021/03/21 11:21:09;;;;;;;7.03;2.80;;;8.50;1.00;;;;;;5114600;28;20207;-65
2021/03/21 11:23:49;;;;;;;14.23;3.25;;;8.60;1.00;;;;;;5120018;28;20193;-63
2021/03/21 11:26:20;;;;;;;9.10;2.58;;;8.60;1.00;;;;;;5113661;28;20285;-63
2021/03/21 11:28:46;;;;;;;12.35;3.22;;;8.50;1.00;;;;;;5113814;28;20189;-67
2021/03/21 11:31:27;;;;;;;7.90;3.40;;;8.50;1.00;;;;;;5130177;27;20180;-66
2021/03/21 11:33:53;;;;;;;7.05;2.50;;;8.80;1.00;;;;;;5138637;27;20192;-68
2021/03/21 11:36:31;;;;;;;7.60;2.60;;;8.70;1.00;;;;;;5138643;27;20388;-66
2021/03/21 11:39:11;;;;;;;11.23;2.92;;;8.60;1.00;;;;;;5137423;27;20185;-64
2021/03/21 11:41:39;;;;;;;11.77;3.25;;;8.50;1.00;;;;;;5135527;27;20623;-67
2021/03/21 11:44:19;;;;;;;12.18;2.90;;;8.90;1.00;;;;;;5134940;27;20246;-62
2021/03/21 11:46:46;;;;;;;10.50;2.67;;;9.00;1.00;;;;;;5136446;27;20177;-63
2021/03/21 11:49:12;;;;;;;14.27;2.50;;;8.80;1.00;;;;;;5136702;27;20175;-65
2021/03/21 11:51:39;;;;;;;12.65;3.08;;;8.70;1.00;;;;;;5134984;27;20171;-64
2021/03/21 11:54:06;;;;;;;11.80;3.80;;;9.00;99.90;;;;;;5136620;27;20639;-64
2021/03/21 11:56:55;;;;;;;12.27;2.92;;;8.70;1.00;;;;;;5136792;27;20259;-63
2021/03/21 11:59:26;;;;;;;6.35;2.75;;;8.90;1.00;;;;;;5108255;27;20225;-66
2021/03/21 12:01:56;;;;;;;9.20;2.95;;;9.10;99.90;;;;;;5136670;27;20177;-63
2021/03/21 12:04:28;;;;;;;11.15;3.55;;;9.20;99.90;;;;;;5137268;27;20186;-64
2021/03/21 12:06:58;;;;;;;6.60;2.22;;;9.50;99.90;;;;;;5137439;27;20190;-62
2021/03/21 12:09:46;;;;;;;7.68;2.70;;;9.30;99.90;;;;;;5137382;27;20181;-62
2021/03/21 12:12:40;;;;;;;8.68;1.85;;;9.50;99.90;;;;;;5137496;27;20174;-64
2021/03/21 12:15:13;;;;;;;8.77;2.50;;;9.40;99.90;;;;;;5137440;27;20487;-65
2021/03/21 12:17:41;;;;;;;9.48;2.85;;;9.50;99.90;;;;;;5137479;27;20261;-62
2021/03/21 12:20:32;;;;;;;8.63;2.50;;;9.40;99.90;;;;;;5137230;27;20210;-62
2021/03/21 12:22:58;;;;;;;9.18;2.08;;;9.80;99.90;;;;;;5137314;27;20505;-64
2021/03/21 12:25:36;;;;;;;9.55;2.53;;;9.90;92.30;;;;;;5136912;27;20185;-64
2021/03/21 12:28:18;;;;;;;9.15;2.47;;;9.80;86.60;;;;;;5137100;27;20173;-63
2021/03/21 12:30:49;;;;;;;14.15;3.00;;;9.90;99.90;;;;;;5136909;27;20173;-63
2021/03/21 12:33:27;;;;;;;8.20;3.78;;;9.70;99.90;;;;;;5136817;27;20213;-61
2021/03/21 12:35:55;;;;;;;36.60;3.25;;;9.60;99.90;;;;;;5136146;27;20229;-63
2021/03/21 12:38:31;;;;;;;10.00;2.00;;;9.40;45.10;;;;;;5137188;27;20178;-64
2021/03/21 12:40:58;;;;;;;7.20;2.08;;;9.30;41.20;;;;;;5137095;27;20548;-63
2021/03/21 12:43:28;;;;;;;6.60;2.47;;;9.00;34.90;;;;;;5136672;27;20272;-63
2021/03/21 12:45:59;;;;;;;8.43;2.70;;;9.10;77.70;;;;;;5136854;27;20542;-64
2021/03/21 12:48:25;;;;;;;8.23;2.20;;;9.10;99.90;;;;;;5137133;27;20234;-64
2021/03/21 12:50:50;;;;;;;16.67;3.17;;;9.00;99.90;;;;;;5136552;27;20677;-64
2021/03/21 12:53:34;;;;;;;7.80;1.90;;;9.20;99.90;;;;;;5136834;27;20431;-65
2021/03/21 12:56:03;;;;;;;11.57;2.67;;;8.90;72.50;;;;;;5138084;27;20194;-66
2021/03/21 12:58:29;;;;;;;9.88;2.33;;;8.70;96.60;;;;;;5136609;27;20318;-65
2021/03/21 13:00:55;;;;;;;4.73;2.27;;;9.20;93.90;;;;;;5136671;27;20280;-68
2021/03/21 13:03:25;;;;;;;11.95;3.83;;;9.30;99.90;;;;;;5136323;27;20185;-69
2021/03/21 13:05:52;;;;;;;11.30;2.65;;;9.80;93.10;;;;;;5136724;27;20182;-69
2021/03/21 13:08:17;;;;;;;7.68;2.55;;;10.20;33.70;;;;;;5136842;27;20241;-66
2021/03/21 13:10:44;;;;;;;7.80;3.30;;;10.10;1.00;;;;;;5136970;27;20174;-67
2021/03/21 13:13:09;;;;;;;7.18;2.30;;;9.80;13.50;;;;;;5136927;27;20508;-67
2021/03/21 13:15:35;;;;;;;7.20;1.77;;;9.80;5.40;;;;;;5136746;27;20206;-64
2021/03/21 13:18:01;;;;;;;3.83;1.60;;;10.10;1.00;;;;;;5136855;27;20166;-65
2021/03/21 13:20:27;;;;;;;5.70;1.60;;;10.00;1.00;;;;;;5136600;27;20199;-63
2021/03/21 13:22:53;;;;;;;4.23;1.63;;;10.00;1.00;;;;;;5136460;27;20179;-62
2021/03/21 13:25:27;;;;;;;6.37;2.80;;;9.70;1.00;;;;;;5140472;27;20563;-66
2021/03/21 13:27:57;;;;;;;7.50;2.20;;;9.80;1.00;;;;;;5149784;27;20497;-68
2021/03/21 13:30:29;;;;;;;3.28;1.20;;;9.80;1.00;;;;;;5146587;27;20182;-69
2021/03/21 13:32:55;;;;;;;7.70;1.80;;;9.80;1.00;;;;;;5139127;27;20181;-67
2021/03/21 13:35:23;;;;;;;4.55;1.67;;;9.70;1.00;;;;;;5141372;27;20603;-67
2021/03/21 13:37:50;;;;;;;7.00;1.50;;;9.80;1.00;;;;;;5143986;27;20190;-63
2021/03/21 13:40:40;;;;;;;2.38;1.42;;;9.70;1.00;;;;;;5144114;27;20630;-63
2021/03/21 13:43:09;;;;;;;4.22;1.35;;;9.70;1.00;;;;;;5142726;27;20178;-64
2021/03/21 13:45:37;;;;;;;6.40;2.15;;;9.20;1.00;;;;;;5141005;27;20181;-67
2021/03/21 13:48:04;;;;;;;5.28;1.40;;;9.40;1.00;;;;;;5143720;27;20176;-66
2021/03/21 13:50:30;;;;;;;5.45;1.60;;;9.40;1.00;;;;;;5144104;27;20179;-68